createdAt,value
2023-10-17T00:00:48.756Z,9.06
2023-10-17T00:01:48.766Z,9.08
2023-10-17T00:02:48.766Z,9.10
2023-10-17T00:03:48.934Z,9.10
2023-10-17T00:04:48.788Z,9.13
2023-10-17T00:05:48.671Z,9.16
2023-10-17T00:06:48.695Z,9.18
2023-10-17T00:07:48.673Z,9.16
2023-10-17T00:08:48.679Z,9.18
2023-10-17T00:09:48.624Z,9.16
2023-10-17T00:10:48.635Z,9.13
2023-10-17T00:11:48.620Z,9.08
2023-10-17T00:12:48.651Z,9.08
2023-10-17T00:13:48.597Z,9.06
2023-10-17T00:14:48.635Z,9.02
2023-10-17T00:15:48.581Z,9.00
2023-10-17T00:16:48.616Z,9.00
2023-10-17T00:17:48.605Z,9.02
2023-10-17T00:18:48.576Z,9.02
2023-10-17T00:19:48.587Z,9.02
2023-10-17T00:20:48.511Z,9.00
2023-10-17T00:21:48.497Z,9.00
2023-10-17T00:22:48.562Z,8.99
2023-10-17T00:23:48.470Z,9.00
2023-10-17T00:24:48.761Z,9.00
2023-10-17T00:25:48.456Z,9.03
2023-10-17T00:26:48.515Z,9.03
2023-10-17T00:27:48.457Z,9.03
2023-10-17T00:28:48.442Z,9.04
2023-10-17T00:29:48.462Z,9.02
2023-10-17T00:30:49.281Z,9.00
2023-10-17T00:31:48.424Z,9.03
2023-10-17T00:32:48.428Z,9.06
2023-10-17T00:33:48.415Z,9.08
2023-10-17T00:34:48.377Z,9.08
2023-10-17T00:35:48.408Z,9.08
2023-10-17T00:36:48.370Z,9.06
2023-10-17T00:37:48.325Z,9.08
2023-10-17T00:38:48.336Z,9.08
2023-10-17T00:39:48.369Z,9.06
2023-10-17T00:40:48.338Z,9.04
2023-10-17T00:41:48.306Z,9.08
2023-10-17T00:42:48.290Z,9.08
2023-10-17T00:43:48.272Z,9.04
2023-10-17T00:44:48.303Z,9.02
2023-10-17T00:45:48.261Z,9.00
2023-10-17T00:46:48.252Z,8.97
2023-10-17T00:47:48.288Z,8.99
2023-10-17T00:48:48.352Z,8.97
2023-10-17T00:49:48.258Z,8.95
2023-10-17T00:50:48.256Z,8.97
2023-10-17T00:51:48.224Z,8.99
2023-10-17T00:52:48.220Z,9.00
2023-10-17T00:53:48.166Z,8.99
2023-10-17T00:54:48.188Z,9.00
2023-10-17T00:55:48.203Z,9.00
2023-10-17T00:56:48.138Z,8.95
2023-10-17T00:57:48.111Z,8.95
2023-10-17T00:58:48.144Z,8.94
2023-10-17T00:59:48.131Z,8.92
2023-10-17T01:00:48.125Z,8.91
2023-10-17T01:01:48.079Z,8.91
2023-10-17T01:02:48.194Z,8.88
2023-10-17T01:03:48.122Z,8.87
2023-10-17T01:04:48.083Z,8.88
2023-10-17T01:05:48.027Z,8.88
2023-10-17T01:06:48.175Z,8.84
2023-10-17T01:07:48.029Z,8.81
2023-10-17T01:08:48.031Z,8.79
2023-10-17T01:09:48.012Z,8.81
2023-10-17T01:10:47.994Z,8.81
2023-10-17T01:11:48.045Z,8.82
2023-10-17T01:12:47.986Z,8.84
2023-10-17T01:13:47.966Z,8.84
2023-10-17T01:14:47.985Z,8.82
2023-10-17T01:15:47.932Z,8.79
2023-10-17T01:16:48.144Z,8.79
2023-10-17T01:17:47.950Z,8.82
2023-10-17T01:18:47.956Z,8.81
2023-10-17T01:19:48.101Z,8.81
2023-10-17T01:20:47.894Z,8.82
2023-10-17T01:21:47.926Z,8.84
2023-10-17T01:22:47.863Z,8.84
2023-10-17T01:23:47.859Z,8.81
2023-10-17T01:24:47.825Z,8.82
2023-10-17T01:25:47.869Z,8.82
2023-10-17T01:26:47.822Z,8.82
2023-10-17T01:27:47.865Z,8.76
2023-10-17T01:28:47.815Z,8.73
2023-10-17T01:29:47.796Z,8.70
2023-10-17T01:30:47.865Z,8.73
2023-10-17T01:31:47.758Z,8.73
2023-10-17T01:32:47.885Z,8.74
2023-10-17T01:33:55.262Z,8.74
2023-10-17T01:34:47.740Z,8.76
2023-10-17T01:35:47.714Z,8.78
2023-10-17T01:36:47.718Z,8.81
2023-10-17T01:37:47.727Z,8.82
2023-10-17T01:38:47.689Z,8.84
2023-10-17T01:39:47.665Z,8.85
2023-10-17T01:40:47.724Z,8.87
2023-10-17T01:41:47.734Z,8.76
2023-10-17T01:42:47.668Z,8.69
2023-10-17T01:43:47.624Z,8.66
2023-10-17T01:44:47.625Z,8.67
2023-10-17T01:45:47.616Z,8.64
2023-10-17T01:46:47.623Z,8.61
2023-10-17T01:47:47.670Z,8.56
2023-10-17T01:48:47.666Z,8.55
2023-10-17T01:49:47.559Z,8.55
2023-10-17T01:50:47.569Z,8.53
2023-10-17T01:51:47.596Z,8.55
2023-10-17T01:52:47.542Z,8.55
2023-10-17T01:53:47.526Z,8.55
2023-10-17T01:54:47.549Z,8.55
2023-10-17T01:55:47.519Z,8.58
2023-10-17T01:56:47.537Z,8.61
2023-10-17T01:57:47.525Z,8.61
2023-10-17T01:58:47.507Z,8.61
2023-10-17T01:59:47.464Z,8.58
2023-10-17T02:00:47.474Z,8.52
2023-10-17T02:01:47.485Z,8.53
2023-10-17T02:02:47.488Z,8.55
2023-10-17T02:03:47.467Z,8.56
2023-10-17T02:04:47.422Z,8.56
2023-10-17T02:05:47.422Z,8.60
2023-10-17T02:06:47.421Z,8.60
2023-10-17T02:07:47.384Z,8.61
2023-10-17T02:08:47.374Z,8.61
2023-10-17T02:09:47.359Z,8.60
2023-10-17T02:10:47.362Z,8.60
2023-10-17T02:11:47.350Z,8.61
2023-10-17T02:12:47.334Z,8.60
2023-10-17T02:13:47.298Z,8.61
2023-10-17T02:14:47.316Z,8.64
2023-10-17T02:15:47.385Z,8.64
2023-10-17T02:16:47.324Z,8.67
2023-10-17T02:17:47.380Z,8.64
2023-10-17T02:18:47.318Z,8.60
2023-10-17T02:19:47.272Z,8.45
2023-10-17T02:20:47.262Z,8.41
2023-10-17T02:21:47.232Z,8.27
2023-10-17T02:22:47.212Z,8.24
2023-10-17T02:23:47.224Z,8.19
2023-10-17T02:24:47.207Z,8.18
2023-10-17T02:25:53.661Z,8.20
2023-10-17T02:26:47.193Z,8.16
2023-10-17T02:27:47.168Z,8.16
2023-10-17T02:28:47.144Z,8.16
2023-10-17T02:29:47.157Z,8.19
2023-10-17T02:30:47.198Z,8.23
2023-10-17T02:31:47.138Z,8.26
2023-10-17T02:32:47.162Z,8.30
2023-10-17T02:33:47.208Z,8.33
2023-10-17T02:34:47.123Z,8.33
2023-10-17T02:35:47.090Z,8.27
2023-10-17T02:36:47.075Z,8.24
2023-10-17T02:37:47.076Z,8.24
2023-10-17T02:38:47.116Z,8.18
2023-10-17T02:39:47.064Z,8.15
2023-10-17T02:40:47.035Z,8.13
2023-10-17T02:41:47.027Z,8.09
2023-10-17T02:42:47.031Z,8.05
2023-10-17T02:43:47.029Z,8.08
2023-10-17T02:44:47.015Z,8.09
2023-10-17T02:45:47.009Z,8.12
2023-10-17T02:46:46.971Z,8.18
2023-10-17T02:47:47.007Z,8.23
2023-10-17T02:48:47.165Z,8.28
2023-10-17T02:49:46.951Z,8.26
2023-10-17T02:50:46.922Z,8.24
2023-10-17T02:51:46.911Z,8.27
2023-10-17T02:52:46.931Z,8.30
2023-10-17T02:53:46.884Z,8.36
2023-10-17T02:54:46.912Z,8.38
2023-10-17T02:55:46.864Z,8.37
2023-10-17T02:56:46.858Z,8.31
2023-10-17T02:57:46.887Z,8.20
2023-10-17T02:58:46.902Z,8.20
2023-10-17T02:59:46.845Z,8.23
2023-10-17T03:00:47.089Z,8.20
2023-10-17T03:01:46.838Z,8.27
2023-10-17T03:02:46.858Z,8.28
2023-10-17T03:03:46.883Z,8.28
2023-10-17T03:04:46.881Z,8.31
2023-10-17T03:05:46.859Z,8.31
2023-10-17T03:06:46.768Z,8.33
2023-10-17T03:07:46.794Z,8.34
2023-10-17T03:08:46.734Z,8.33
2023-10-17T03:09:46.719Z,8.30
2023-10-17T03:10:49.999Z,8.24
2023-10-17T03:11:46.748Z,8.18
2023-10-17T03:12:46.711Z,8.12
2023-10-17T03:13:46.692Z,8.13
2023-10-17T03:14:46.680Z,8.18
2023-10-17T03:15:46.789Z,8.20
2023-10-17T03:16:46.676Z,8.16
2023-10-17T03:17:46.697Z,8.19
2023-10-17T03:18:46.687Z,8.20
2023-10-17T03:19:46.608Z,8.24
2023-10-17T03:20:46.639Z,8.19
2023-10-17T03:21:46.624Z,8.23
2023-10-17T03:22:46.596Z,8.23
2023-10-17T03:23:46.630Z,8.19
2023-10-17T03:24:46.572Z,8.19
2023-10-17T03:25:46.584Z,8.19
2023-10-17T03:26:46.598Z,8.20
2023-10-17T03:27:46.544Z,8.23
2023-10-17T03:28:46.516Z,8.16
2023-10-17T03:29:46.512Z,8.13
2023-10-17T03:30:46.530Z,8.08
2023-10-17T03:31:46.536Z,8.05
2023-10-17T03:32:46.560Z,8.00
2023-10-17T03:33:46.492Z,7.97
2023-10-17T03:34:46.515Z,7.94
2023-10-17T03:35:46.504Z,7.97
2023-10-17T03:36:46.436Z,7.98
2023-10-17T03:37:46.418Z,7.95
2023-10-17T03:38:46.413Z,7.94
2023-10-17T03:39:46.456Z,7.98
2023-10-17T03:40:46.429Z,7.97
2023-10-17T03:41:46.384Z,7.95
2023-10-17T03:42:46.375Z,8.00
2023-10-17T03:43:46.383Z,8.03
2023-10-17T03:44:46.391Z,8.09
2023-10-17T03:45:46.450Z,8.15
2023-10-17T03:46:46.330Z,8.16
2023-10-17T03:47:46.393Z,8.23
2023-10-17T03:48:46.392Z,8.24
2023-10-17T03:49:46.327Z,8.24
2023-10-17T03:50:46.292Z,8.24
2023-10-17T03:51:46.490Z,8.24
2023-10-17T03:52:46.359Z,8.26
2023-10-17T03:53:46.269Z,8.28
2023-10-17T03:54:46.241Z,8.26
2023-10-17T03:55:46.284Z,8.31
2023-10-17T03:56:46.223Z,8.33
2023-10-17T03:57:46.282Z,8.34
2023-10-17T03:58:46.237Z,8.31
2023-10-17T03:59:46.216Z,8.34
2023-10-17T04:00:46.178Z,8.36
2023-10-17T04:01:46.171Z,8.38
2023-10-17T04:02:46.257Z,8.38
2023-10-17T04:03:46.232Z,8.42
2023-10-17T04:04:46.205Z,8.46
2023-10-17T04:05:46.128Z,8.53
2023-10-17T04:06:46.166Z,8.56
2023-10-17T04:07:46.128Z,8.60
2023-10-17T04:08:46.106Z,8.61
2023-10-17T04:09:46.085Z,8.64
2023-10-17T04:10:46.116Z,8.63
2023-10-17T04:11:46.057Z,8.61
2023-10-17T04:12:46.068Z,8.60
2023-10-17T04:13:46.073Z,8.58
2023-10-17T04:14:46.037Z,8.55
2023-10-17T04:15:46.030Z,8.53
2023-10-17T04:16:46.022Z,8.51
2023-10-17T04:17:46.054Z,8.41
2023-10-17T04:18:46.030Z,8.34
2023-10-17T04:19:45.993Z,8.30
2023-10-17T04:20:45.985Z,8.26
2023-10-17T04:21:45.994Z,8.19
2023-10-17T04:22:45.978Z,8.20
2023-10-17T04:23:45.945Z,8.24
2023-10-17T04:24:45.931Z,8.26
2023-10-17T04:25:45.945Z,8.26
2023-10-17T04:26:46.181Z,8.27
2023-10-17T04:27:45.922Z,8.27
2023-10-17T04:28:45.889Z,8.28
2023-10-17T04:29:45.895Z,8.31
2023-10-17T04:30:45.859Z,8.34
2023-10-17T04:31:45.913Z,8.31
2023-10-17T04:32:45.867Z,8.30
2023-10-17T04:33:45.832Z,8.33
2023-10-17T04:34:45.852Z,8.33
2023-10-17T04:35:45.842Z,8.34
2023-10-17T04:36:45.841Z,8.37
2023-10-17T04:37:45.881Z,8.33
2023-10-17T04:38:45.776Z,8.31
2023-10-17T04:39:45.764Z,8.28
2023-10-17T04:40:45.779Z,8.30
2023-10-17T04:41:45.761Z,8.31
2023-10-17T04:42:45.739Z,8.31
2023-10-17T04:43:45.823Z,8.28
2023-10-17T04:44:45.770Z,8.27
2023-10-17T04:45:45.934Z,8.26
2023-10-17T04:46:45.716Z,8.27
2023-10-17T04:47:45.730Z,8.26
2023-10-17T04:48:45.720Z,8.26
2023-10-17T04:49:45.719Z,8.27
2023-10-17T04:50:45.676Z,8.28
2023-10-17T04:51:45.632Z,8.24
2023-10-17T04:52:45.944Z,8.26
2023-10-17T04:53:45.619Z,8.26
2023-10-17T04:54:45.667Z,8.30
2023-10-17T04:55:45.616Z,8.31
2023-10-17T04:56:45.581Z,8.33
2023-10-17T04:57:45.571Z,8.36
2023-10-17T04:58:45.569Z,8.34
2023-10-17T04:59:45.580Z,8.31
2023-10-17T05:00:52.148Z,8.27
2023-10-17T05:01:45.611Z,8.24
2023-10-17T05:02:52.068Z,8.26
2023-10-17T05:03:53.322Z,8.27
2023-10-17T05:05:45.491Z,8.31
2023-10-17T05:06:45.526Z,8.28
2023-10-17T05:07:45.492Z,8.28
2023-10-17T05:08:45.487Z,8.28
2023-10-17T05:09:45.523Z,8.30
2023-10-17T05:10:45.526Z,8.28
2023-10-17T05:11:45.499Z,8.28
2023-10-17T05:12:45.492Z,8.24
2023-10-17T05:13:45.528Z,8.18
2023-10-17T05:14:45.538Z,8.16
2023-10-17T05:15:45.410Z,8.15
2023-10-17T05:16:45.462Z,8.19
2023-10-17T05:17:45.504Z,8.20
2023-10-17T05:18:45.481Z,8.24
2023-10-17T05:19:45.352Z,8.18
2023-10-17T05:20:45.375Z,8.18
2023-10-17T05:21:45.358Z,8.18
2023-10-17T05:22:45.386Z,8.15
2023-10-17T05:23:45.315Z,8.13
2023-10-17T05:24:45.345Z,8.15
2023-10-17T05:25:45.310Z,8.19
2023-10-17T05:26:45.382Z,8.27
2023-10-17T05:27:45.353Z,8.34
2023-10-17T05:28:51.813Z,8.36
2023-10-17T05:29:45.276Z,8.37
2023-10-17T05:30:45.199Z,8.36
2023-10-17T05:31:45.162Z,8.34
2023-10-17T05:32:45.230Z,8.33
2023-10-17T05:33:45.228Z,8.27
2023-10-17T05:34:45.137Z,8.30
2023-10-17T05:35:45.137Z,8.28
2023-10-17T05:36:45.183Z,8.28
2023-10-17T05:37:45.147Z,8.26
2023-10-17T05:38:45.093Z,8.23
2023-10-17T05:39:45.151Z,8.19
2023-10-17T05:40:47.667Z,8.20
2023-10-17T05:41:45.118Z,8.23
2023-10-17T05:42:45.104Z,8.28
2023-10-17T05:43:45.080Z,8.28
2023-10-17T05:44:45.050Z,8.28
2023-10-17T05:45:45.137Z,8.30
2023-10-17T05:46:45.034Z,8.33
2023-10-17T05:47:45.080Z,8.34
2023-10-17T05:48:45.049Z,8.34
2023-10-17T05:49:44.981Z,8.33
2023-10-17T05:50:44.986Z,8.30
2023-10-17T05:51:45.051Z,8.20
2023-10-17T05:52:44.949Z,8.20
2023-10-17T05:53:44.957Z,8.19
2023-10-17T05:55:07.407Z,8.20
2023-10-17T05:55:44.987Z,8.16
2023-10-17T05:56:44.951Z,8.12
2023-10-17T05:57:44.943Z,8.10
2023-10-17T05:58:44.881Z,8.12
2023-10-17T05:59:44.912Z,8.10
2023-10-17T06:00:44.957Z,8.10
2023-10-17T06:01:44.854Z,8.09
2023-10-17T06:02:44.906Z,8.06
2023-10-17T06:03:44.998Z,8.06
2023-10-17T06:04:45.008Z,8.08
2023-10-17T06:05:44.859Z,8.09
2023-10-17T06:06:44.825Z,8.10
2023-10-17T06:07:44.830Z,8.06
2023-10-17T06:08:44.781Z,8.05
2023-10-17T06:09:44.877Z,8.08
2023-10-17T06:10:44.803Z,8.09
2023-10-17T06:11:44.795Z,8.13
2023-10-17T06:12:44.787Z,8.15
2023-10-17T06:13:44.740Z,8.16
2023-10-17T06:14:44.743Z,8.13
2023-10-17T06:15:44.817Z,8.13
2023-10-17T06:16:44.704Z,8.12
2023-10-17T06:17:44.735Z,8.12
2023-10-17T06:18:44.742Z,8.15
2023-10-17T06:19:44.731Z,8.19
2023-10-17T06:20:44.657Z,8.23
2023-10-17T06:21:44.729Z,8.23
2023-10-17T06:22:44.653Z,8.24
2023-10-17T06:23:44.680Z,8.24
2023-10-17T06:24:44.709Z,8.24
2023-10-17T06:25:44.630Z,8.18
2023-10-17T06:26:44.617Z,8.16
2023-10-17T06:27:44.644Z,8.13
2023-10-17T06:28:44.596Z,8.13
2023-10-17T06:29:44.562Z,8.13
2023-10-17T06:30:44.645Z,8.12
2023-10-17T06:31:44.544Z,8.09
2023-10-17T06:32:44.553Z,8.06
2023-10-17T06:33:44.568Z,8.01
2023-10-17T06:34:44.529Z,8.00
2023-10-17T06:35:44.539Z,7.97
2023-10-17T06:36:44.524Z,7.97
2023-10-17T06:37:44.552Z,7.98
2023-10-17T06:38:44.508Z,7.95
2023-10-17T06:39:44.500Z,7.97
2023-10-17T06:40:44.472Z,7.97
2023-10-17T06:41:44.449Z,8.00
2023-10-17T06:42:44.549Z,8.03
2023-10-17T06:43:44.450Z,8.00
2023-10-17T06:44:46.373Z,8.00
2023-10-17T06:45:44.549Z,8.00
2023-10-17T06:46:44.420Z,7.95
2023-10-17T06:47:44.441Z,7.93
2023-10-17T06:48:44.395Z,7.87
2023-10-17T06:49:44.372Z,7.83
2023-10-17T06:50:44.376Z,7.83
2023-10-17T06:51:44.416Z,7.82
2023-10-17T06:52:44.379Z,7.80
2023-10-17T06:53:44.350Z,7.83
2023-10-17T06:54:44.379Z,7.87
2023-10-17T06:55:44.296Z,7.85
2023-10-17T06:56:44.360Z,7.83
2023-10-17T06:57:44.313Z,7.83
2023-10-17T06:58:44.297Z,7.80
2023-10-17T06:59:44.266Z,7.77
2023-10-17T07:00:44.460Z,7.75
2023-10-17T07:01:44.339Z,7.77
2023-10-17T07:02:44.267Z,7.80
2023-10-17T07:03:44.343Z,7.85
2023-10-17T07:04:44.411Z,7.88
2023-10-17T07:05:44.206Z,7.88
2023-10-17T07:06:44.250Z,7.80
2023-10-17T07:07:44.173Z,7.80
2023-10-17T07:08:44.205Z,7.83
2023-10-17T07:09:44.225Z,7.88
2023-10-17T07:10:44.170Z,7.87
2023-10-17T07:11:44.188Z,7.90
2023-10-17T07:12:44.790Z,7.88
2023-10-17T07:13:44.127Z,7.94
2023-10-17T07:14:44.102Z,7.98
2023-10-17T07:15:44.198Z,8.00
2023-10-17T07:16:44.086Z,8.03
2023-10-17T07:17:44.097Z,8.09
2023-10-17T07:18:44.158Z,8.09
2023-10-17T07:19:44.070Z,8.06
2023-10-17T07:20:44.097Z,8.06
2023-10-17T07:21:44.051Z,8.10
2023-10-17T07:22:44.042Z,8.09
2023-10-17T07:23:43.998Z,8.08
2023-10-17T07:24:44.236Z,8.12
2023-10-17T07:25:44.007Z,8.09
2023-10-17T07:26:44.070Z,8.12
2023-10-17T07:27:44.350Z,8.16
2023-10-17T07:28:43.950Z,8.10
2023-10-17T07:29:44.005Z,8.05
2023-10-17T07:30:43.978Z,8.03
2023-10-17T07:31:43.946Z,8.08
2023-10-17T07:32:43.929Z,8.08
2023-10-17T07:33:44.039Z,8.09
2023-10-17T07:34:43.924Z,8.08
2023-10-17T07:35:43.898Z,8.06
2023-10-17T07:36:43.895Z,8.01
2023-10-17T07:37:43.859Z,8.06
2023-10-17T07:38:43.841Z,8.06
2023-10-17T07:39:43.877Z,8.05
2023-10-17T07:40:43.839Z,8.03
2023-10-17T07:41:43.814Z,7.94
2023-10-17T07:42:46.416Z,7.91
2023-10-17T07:43:43.844Z,7.98
2023-10-17T07:44:43.803Z,8.00
2023-10-17T07:45:43.854Z,8.03
2023-10-17T07:46:43.906Z,8.00
2023-10-17T07:47:43.797Z,8.05
2023-10-17T07:48:43.790Z,8.10
2023-10-17T07:49:43.944Z,8.13
2023-10-17T07:50:43.761Z,8.16
2023-10-17T07:51:43.783Z,8.23
2023-10-17T07:52:43.722Z,8.30
2023-10-17T07:53:43.751Z,8.33
2023-10-17T07:54:43.742Z,8.34
2023-10-17T07:55:43.668Z,8.28
2023-10-17T07:56:43.847Z,8.27
2023-10-17T07:57:43.705Z,8.30
2023-10-17T07:58:44.032Z,8.24
2023-10-17T07:59:44.731Z,8.19
2023-10-17T08:00:43.737Z,8.19
2023-10-17T08:01:43.711Z,8.19
2023-10-17T08:02:43.899Z,8.20
2023-10-17T08:03:43.684Z,8.24
2023-10-17T08:04:43.687Z,8.26
2023-10-17T08:05:43.651Z,8.28
2023-10-17T08:06:43.637Z,8.27
2023-10-17T08:07:43.549Z,8.30
2023-10-17T08:08:50.120Z,8.33
2023-10-17T08:09:50.035Z,8.33
2023-10-17T08:10:50.039Z,8.34
2023-10-17T08:11:51.379Z,8.30
2023-10-17T08:12:50.992Z,8.24
2023-10-17T08:13:49.972Z,8.26
2023-10-17T08:14:49.953Z,8.27
2023-10-17T08:15:50.956Z,8.34
2023-10-17T08:16:51.022Z,8.38
2023-10-17T08:17:43.450Z,8.41
2023-10-17T08:18:43.550Z,8.44
2023-10-17T08:19:43.538Z,8.46
2023-10-17T08:20:43.395Z,8.48
2023-10-17T08:21:43.566Z,8.49
2023-10-17T08:22:43.630Z,8.51
2023-10-17T08:23:43.474Z,8.49
2023-10-17T08:24:43.397Z,8.52
2023-10-17T08:25:43.375Z,8.61
2023-10-17T08:26:43.368Z,8.66
2023-10-17T08:27:43.397Z,8.71
2023-10-17T08:28:43.343Z,8.70
2023-10-17T08:29:43.309Z,8.71
2023-10-17T08:30:46.051Z,8.76
2023-10-17T08:31:43.425Z,8.82
2023-10-17T08:32:43.396Z,8.84
2023-10-17T08:33:43.328Z,8.87
2023-10-17T08:34:43.290Z,8.89
2023-10-17T08:35:43.352Z,8.94
2023-10-17T08:36:43.482Z,8.97
2023-10-17T08:37:43.216Z,9.03
2023-10-17T08:38:49.707Z,9.10
2023-10-17T08:39:43.312Z,9.11
2023-10-17T08:40:43.247Z,9.13
2023-10-17T08:41:43.174Z,9.13
2023-10-17T08:42:45.420Z,9.16
2023-10-17T08:44:53.994Z,9.25
2023-10-17T08:45:54.947Z,9.26
2023-10-17T08:46:54.960Z,9.29
2023-10-17T08:47:55.094Z,9.31
2023-10-17T08:48:55.008Z,9.36
2023-10-17T08:49:54.934Z,9.40
2023-10-17T08:50:54.874Z,9.40
2023-10-17T08:51:54.959Z,9.43
2023-10-17T08:52:54.879Z,9.46
2023-10-17T08:53:54.884Z,9.41
2023-10-17T08:54:54.873Z,9.41
2023-10-17T08:55:55.110Z,9.44
2023-10-17T08:56:54.828Z,9.44
2023-10-17T08:57:54.861Z,9.43
2023-10-17T08:58:54.829Z,9.43
2023-10-17T08:59:54.822Z,9.41
2023-10-17T09:00:54.967Z,9.40
2023-10-17T09:01:54.772Z,9.40
2023-10-17T09:02:54.837Z,9.40
2023-10-17T09:03:54.792Z,9.44
2023-10-17T09:04:54.829Z,9.46
2023-10-17T09:05:54.736Z,9.50
2023-10-17T09:06:54.817Z,9.55
2023-10-17T09:07:54.747Z,9.62
2023-10-17T09:08:54.694Z,9.68
2023-10-17T09:09:54.757Z,9.73
2023-10-17T09:10:54.689Z,9.77
2023-10-17T09:11:54.665Z,9.79
2023-10-17T09:12:54.727Z,9.79
2023-10-17T09:13:54.654Z,9.79
2023-10-17T09:14:54.646Z,9.80
2023-10-17T09:15:54.637Z,9.77
2023-10-17T09:16:54.684Z,9.79
2023-10-17T09:17:54.675Z,9.79
2023-10-17T09:18:54.685Z,9.79
2023-10-17T09:19:54.582Z,9.74
2023-10-17T09:20:54.565Z,9.72
2023-10-17T09:21:54.604Z,9.74
2023-10-17T09:22:54.577Z,9.74
2023-10-17T09:23:54.638Z,9.73
2023-10-17T09:24:54.580Z,9.68
2023-10-17T09:25:54.608Z,9.66
2023-10-17T09:26:54.553Z,9.72
2023-10-17T09:27:54.522Z,9.76
2023-10-17T09:28:54.520Z,9.79
2023-10-17T09:29:54.496Z,9.82
2023-10-17T09:30:54.598Z,9.86
2023-10-17T09:31:54.522Z,9.91
2023-10-17T09:32:54.503Z,9.94
2023-10-17T09:33:54.519Z,9.97
2023-10-17T09:34:54.486Z,10.04
2023-10-17T09:35:54.430Z,10.05
2023-10-17T09:36:55.485Z,10.02
2023-10-17T09:37:58.407Z,10.05
2023-10-17T09:38:54.446Z,10.07
2023-10-17T09:39:54.474Z,10.15
2023-10-17T09:41:54.604Z,10.22
2023-10-17T09:42:54.355Z,10.22
2023-10-17T09:43:54.740Z,10.25
2023-10-17T09:44:55.642Z,10.28
2023-10-17T09:45:55.661Z,10.30
2023-10-17T09:46:54.411Z,10.34
2023-10-17T09:47:54.757Z,10.35
2023-10-17T09:48:54.645Z,10.41
2023-10-17T09:49:55.256Z,10.44
2023-10-17T09:50:55.305Z,10.49
2023-10-17T09:51:54.520Z,10.54
2023-10-17T09:52:54.621Z,10.57
2023-10-17T09:53:55.442Z,10.61
2023-10-17T09:54:54.264Z,10.64
2023-10-17T09:55:54.262Z,10.68
2023-10-17T09:56:54.242Z,10.74
2023-10-17T09:57:54.214Z,10.78
2023-10-17T09:58:54.487Z,10.78
2023-10-17T09:59:54.463Z,10.81
2023-10-17T10:00:54.270Z,10.86
2023-10-17T10:01:54.490Z,10.90
2023-10-17T10:03:04.748Z,10.89
2023-10-17T10:03:54.255Z,10.90
2023-10-17T10:04:54.534Z,10.90
2023-10-17T10:05:54.112Z,10.84
2023-10-17T10:06:54.326Z,10.87
2023-10-17T10:07:54.151Z,10.82
2023-10-17T10:08:54.150Z,10.79
2023-10-17T10:09:54.161Z,10.93
2023-10-17T10:10:54.133Z,10.99
2023-10-17T10:11:54.114Z,10.97
2023-10-17T10:12:54.074Z,10.97
2023-10-17T10:13:54.357Z,11.02
2023-10-17T10:14:54.120Z,11.04
2023-10-17T10:15:54.005Z,11.08
2023-10-17T10:17:00.486Z,11.07
2023-10-17T10:17:54.040Z,10.99
2023-10-17T10:19:01.827Z,10.96
2023-10-17T10:19:54.156Z,10.97
2023-10-17T10:20:53.956Z,10.97
2023-10-17T10:21:53.960Z,10.99
2023-10-17T10:22:53.992Z,10.97
2023-10-17T10:24:01.895Z,10.96
2023-10-17T10:24:53.935Z,10.89
2023-10-17T10:25:53.929Z,10.82
2023-10-17T10:26:53.892Z,10.81
2023-10-17T10:27:54.021Z,10.79
2023-10-17T10:28:53.878Z,10.79
2023-10-17T10:29:54.234Z,10.72
2023-10-17T10:30:53.880Z,10.67
2023-10-17T10:31:53.901Z,10.61
2023-10-17T10:32:53.926Z,10.63
2023-10-17T10:33:53.909Z,10.67
2023-10-17T10:34:53.872Z,10.72
2023-10-17T10:35:53.846Z,10.74
2023-10-17T10:36:53.783Z,10.75
2023-10-17T10:37:53.896Z,10.75
2023-10-17T10:38:53.771Z,10.79
2023-10-17T10:39:53.876Z,10.82
2023-10-17T10:40:53.748Z,10.92
2023-10-17T10:41:53.769Z,10.96
2023-10-17T10:42:54.155Z,10.99
2023-10-17T10:43:53.728Z,11.07
2023-10-17T10:44:53.728Z,11.11
2023-10-17T10:45:53.884Z,11.14
2023-10-17T10:46:53.847Z,11.22
2023-10-17T10:47:53.791Z,11.22
2023-10-17T10:48:53.677Z,11.22
2023-10-17T10:49:53.661Z,11.19
2023-10-17T10:50:53.691Z,11.19
2023-10-17T10:51:53.709Z,11.15
2023-10-17T10:52:56.204Z,11.14
2023-10-17T10:53:53.642Z,11.07
2023-10-17T10:54:53.704Z,11.07
2023-10-17T10:55:53.600Z,11.05
2023-10-17T10:56:53.599Z,11.05
2023-10-17T10:57:53.676Z,11.07
2023-10-17T10:58:53.558Z,11.10
2023-10-17T10:59:53.602Z,11.12
2023-10-17T11:00:53.566Z,11.17
2023-10-17T11:01:53.596Z,11.19
2023-10-17T11:02:53.544Z,11.22
2023-10-17T11:03:53.600Z,11.23
2023-10-17T11:04:53.545Z,11.27
2023-10-17T11:05:53.536Z,11.30
2023-10-17T11:06:53.500Z,11.27
2023-10-17T11:07:53.469Z,11.18
2023-10-17T11:08:53.493Z,11.17
2023-10-17T11:09:53.464Z,11.17
2023-10-17T11:10:53.562Z,11.17
2023-10-17T11:11:53.941Z,11.19
2023-10-17T11:12:53.927Z,11.19
2023-10-17T11:13:53.615Z,11.25
2023-10-17T11:15:05.188Z,11.29
2023-10-17T11:15:53.614Z,11.35
2023-10-17T11:16:53.415Z,11.41
2023-10-17T11:17:53.427Z,11.48
2023-10-17T11:18:53.436Z,11.52
2023-10-17T11:19:53.356Z,11.51
2023-10-17T11:20:53.336Z,11.47
2023-10-17T11:21:53.339Z,11.43
2023-10-17T11:22:53.307Z,11.37
2023-10-17T11:23:53.292Z,11.36
2023-10-17T11:24:53.352Z,11.41
2023-10-17T11:25:53.289Z,11.45
2023-10-17T11:26:53.378Z,11.50
2023-10-17T11:27:56.588Z,11.54
2023-10-17T11:28:54.802Z,11.59
2023-10-17T11:29:54.884Z,11.62
2023-10-17T11:30:54.254Z,11.66
2023-10-17T11:31:53.689Z,11.69
2023-10-17T11:32:53.276Z,11.73
2023-10-17T11:33:53.377Z,11.78
2023-10-17T11:34:53.487Z,11.78
2023-10-17T11:35:53.807Z,11.80
2023-10-17T11:36:53.216Z,11.83
2023-10-17T11:38:06.827Z,11.80
2023-10-17T11:38:53.179Z,11.81
2023-10-17T11:39:53.155Z,11.78
2023-10-17T11:40:53.122Z,11.77
2023-10-17T11:41:53.119Z,11.72
2023-10-17T11:42:53.118Z,11.68
2023-10-17T11:43:53.506Z,11.69
2023-10-17T11:44:53.078Z,11.72
2023-10-17T11:45:53.245Z,11.72
2023-10-17T11:46:53.206Z,11.72
2023-10-17T11:47:53.142Z,11.73
2023-10-17T11:48:53.078Z,11.75
2023-10-17T11:49:53.048Z,11.77
2023-10-17T11:50:53.095Z,11.73
2023-10-17T11:51:53.247Z,11.75
2023-10-17T11:52:53.056Z,11.78
2023-10-17T11:53:52.991Z,11.78
2023-10-17T11:54:53.020Z,11.66
2023-10-17T11:55:53.048Z,11.66
2023-10-17T11:56:53.029Z,11.70
2023-10-17T11:57:52.983Z,11.73
2023-10-17T11:58:52.968Z,11.78
2023-10-17T11:59:52.990Z,11.81
2023-10-17T12:00:53.191Z,11.86
2023-10-17T12:01:52.994Z,11.90
2023-10-17T12:02:53.009Z,11.84
2023-10-17T12:03:52.955Z,11.81
2023-10-17T12:04:52.910Z,11.80
2023-10-17T12:05:52.885Z,11.77
2023-10-17T12:06:52.931Z,11.72
2023-10-17T12:07:52.879Z,11.69
2023-10-17T12:08:52.845Z,11.69
2023-10-17T12:09:52.842Z,11.73
2023-10-17T12:10:52.839Z,11.80
2023-10-17T12:11:52.843Z,11.81
2023-10-17T12:12:52.903Z,11.87
2023-10-17T12:13:52.805Z,11.91
2023-10-17T12:14:52.869Z,11.97
2023-10-17T12:15:52.825Z,11.97
2023-10-17T12:16:52.888Z,12.00
2023-10-17T12:17:52.803Z,12.02
2023-10-17T12:18:52.909Z,12.03
2023-10-17T12:19:52.923Z,12.00
2023-10-17T12:20:59.492Z,12.00
2023-10-17T12:21:52.961Z,11.97
2023-10-17T12:22:52.747Z,11.97
2023-10-17T12:23:52.692Z,11.95
2023-10-17T12:24:52.905Z,11.94
2023-10-17T12:25:52.702Z,11.91
2023-10-17T12:26:52.685Z,11.90
2023-10-17T12:27:52.645Z,11.94
2023-10-17T12:28:52.650Z,11.91
2023-10-17T12:29:55.405Z,11.97
2023-10-17T12:30:53.425Z,11.97
2023-10-17T12:31:52.687Z,11.99
2023-10-17T12:32:52.792Z,11.90
2023-10-17T12:33:52.607Z,11.90
2023-10-17T12:34:52.647Z,11.90
2023-10-17T12:35:53.079Z,11.94
2023-10-17T12:36:52.649Z,11.94
2023-10-17T12:37:52.606Z,11.90
2023-10-17T12:38:52.584Z,11.90
2023-10-17T12:39:52.634Z,11.94
2023-10-17T12:40:52.523Z,11.99
2023-10-17T12:41:52.506Z,12.03
2023-10-17T12:42:52.561Z,12.07
2023-10-17T12:43:52.523Z,12.13
2023-10-17T12:44:52.526Z,12.15
2023-10-17T12:45:52.495Z,12.17
2023-10-17T12:46:52.506Z,12.18
2023-10-17T12:47:52.483Z,12.21
2023-10-17T12:48:52.497Z,12.24
2023-10-17T12:49:52.427Z,12.28
2023-10-17T12:50:52.419Z,12.27
2023-10-17T12:51:52.486Z,12.28
2023-10-17T12:52:52.452Z,12.32
2023-10-17T12:53:52.406Z,12.32
2023-10-17T12:54:52.470Z,12.32
2023-10-17T12:55:52.365Z,12.32
2023-10-17T12:56:52.346Z,12.32
2023-10-17T12:57:52.474Z,12.28
2023-10-17T12:58:52.387Z,12.22
2023-10-17T12:59:52.343Z,12.09
2023-10-17T13:00:52.370Z,12.02
2023-10-17T13:01:52.326Z,11.97
2023-10-17T13:02:52.388Z,11.94
2023-10-17T13:03:53.032Z,11.95
2023-10-17T13:04:52.376Z,11.94
2023-10-17T13:05:52.385Z,11.86
2023-10-17T13:06:52.307Z,11.84
2023-10-17T13:07:52.260Z,11.84
2023-10-17T13:08:52.228Z,11.81
2023-10-17T13:09:52.272Z,11.78
2023-10-17T13:10:52.212Z,11.73
2023-10-17T13:11:52.212Z,11.75
2023-10-17T13:12:52.310Z,11.78
2023-10-17T13:13:52.183Z,11.75
2023-10-17T13:14:52.182Z,11.75